Terminal Aerodrome Forecast
Issued by NWS

Home | Current Version | Previous Version | Text Only | Print | Product List | Glossary On
Versions: 1 2 3 4 5 6 7 8 9 10 11 12 13 14 15 16 17 18 19 20
000
FTUS43 KILX 291100
TAFDEC
TAF
KDEC 291136Z 2912/3012 14007KT P6SM SCT040 BKN200
     FM291700 18012KT P6SM VCTS SCT040CB BKN200
     FM300000 17008KT P6SM VCTS BKN035CB=

USA.gov is the U.S. government's official web portal to all federal, state and local government web resources and services.